Time;durP1;ratioP1;P1;durP2;ratioP2;P2;SDS_P1;SDS_P2;PMS_P1;PMS_P2;Temp;Humidity;BMP_temperature;BMP_pressure;BME280_temperature;BME280_humidity;BME280_pressure;Samples;Min_cycle;Max_cycle;Signal;HPM_P1;HPM_P2
2021/08/13 00:00:04;;;;;;;;;;;;;;;;;;4965489;28;19987;-71
2021/08/13 00:02:37;;;;;;;;;;;;;;;;;;4958146;28;19914;-71
2021/08/13 00:05:03;;;;;;;;;;;;;;;;;;4969789;28;19914;-71
2021/08/13 00:07:29;;;;;;;;;;;;;;;;;;4946570;28;19993;-71
2021/08/13 00:09:54;;;;;;;;;;;;;;;;;;4962673;28;19913;-70
2021/08/13 00:12:19;;;;;;;;;;;;;;;;;;4972013;28;20359;-71
2021/08/13 00:14:44;;;;;;;;;;;;;;;;;;4943893;28;19914;-71
2021/08/13 00:17:09;;;;;;;;;;;;;;;;;;4970562;28;20386;-70
2021/08/13 00:19:35;;;;;;;;;;;;;;;;;;4965358;28;20319;-71
2021/08/13 00:22:00;;;;;;;;;;;;;;;;;;4962597;28;20339;-71
2021/08/13 00:24:25;;;;;;;;;;;;;;;;;;4970177;28;20331;-71
2021/08/13 00:26:51;;;;;;;;;;;;;;;;;;4964237;28;19948;-71
2021/08/13 00:29:16;;;;;;;;;;;;;;;;;;4953465;28;20038;-70
2021/08/13 00:31:41;;;;;;;;;;;;;;;;;;4943905;28;19993;-70
2021/08/13 00:34:07;;;;;;;;;;;;;;;;;;4945721;28;20255;-70
2021/08/13 00:36:32;;;;;;;;;;;;;;;;;;4935559;28;19914;-71
2021/08/13 00:39:02;;;;;;;;;;;;;;;;;;4948257;28;19914;-71
2021/08/13 00:41:28;;;;;;;;;;;;;;;;;;4971182;28;19914;-71
2021/08/13 00:43:54;;;;;;;;;;;;;;;;;;4949943;28;19944;-70
2021/08/13 00:46:19;;;;;;;;;;;;;;;;;;4957851;28;20363;-70
2021/08/13 00:49:08;;;;;;;;;;;;;;;;;;4972424;28;20446;-71
2021/08/13 00:51:38;;;;;;;;;;;;;;;;;;4950623;28;19922;-71
2021/08/13 00:54:07;;;;;;;;;;;;;;;;;;4955293;28;20180;-71
2021/08/13 00:56:36;;;;;;;;;;;;;;;;;;4954782;28;20382;-71
2021/08/13 00:59:18;;;;;;;;;;;;;;;;;;4950001;28;19940;-71
2021/08/13 01:01:48;;;;;;;;;;;;;;;;;;4957083;28;19910;-71
2021/08/13 01:04:13;;;;;;;;;;;;;;;;;;4948658;28;19910;-71
2021/08/13 01:06:38;;;;;;;;;;;;;;;;;;4949478;28;19914;-71
2021/08/13 01:09:04;;;;;;;;;;;;;;;;;;4955720;28;20279;-71
2021/08/13 01:11:29;;;;;;;;;;;;;;;;;;4947939;28;20344;-71
2021/08/13 01:13:55;;;;;;;;;;;;;;;;;;4955705;28;20283;-71
2021/08/13 01:16:21;;;;;;;;;;;;;;;;;;4953395;28;19949;-71
2021/08/13 01:18:47;;;;;;;;;;;;;;;;;;4947583;28;20008;-71
2021/08/13 01:21:12;;;;;;;;;;;;;;;;;;4952637;28;19997;-71
2021/08/13 01:23:43;;;;;;;;;;;;;;;;;;4950920;28;20421;-71
2021/08/13 01:26:11;;;;;;;;;;;;;;;;;;4975917;28;19913;-70
2021/08/13 01:28:36;;;;;;;;;;;;;;;;;;4965607;28;19914;-71
2021/08/13 01:31:03;;;;;;;;;;;;;;;;;;4948337;28;19969;-71
2021/08/13 01:33:31;;;;;;;;;;;;;;;;;;4958438;28;20244;-71
2021/08/13 01:35:56;;;;;;;;;;;;;;;;;;4968561;28;20430;-71
2021/08/13 01:38:22;;;;;;;;;;;;;;;;;;4954450;28;19984;-71
2021/08/13 01:40:50;;;;;;;;;;;;;;;;;;4946359;28;19914;-71
2021/08/13 01:43:18;;;;;;;;;;;;;;;;;;4948301;28;20322;-71
2021/08/13 01:45:43;;;;;;;;;;;;;;;;;;4954400;28;20385;-71
2021/08/13 01:48:09;;;;;;;;;;;;;;;;;;4951298;28;19914;-71
2021/08/13 01:50:38;;;;;;;;;;;;;;;;;;4935639;28;20041;-71
2021/08/13 01:53:04;;;;;;;;;;;;;;;;;;4946202;28;20021;-71
2021/08/13 01:55:29;;;;;;;;;;;;;;;;;;4950246;28;20011;-71
2021/08/13 01:57:55;;;;;;;;;;;;;;;;;;4956971;28;19914;-71
2021/08/13 02:00:24;;;;;;;;;;;;;;;;;;4950476;28;19924;-71
2021/08/13 02:02:53;;;;;;;;;;;;;;;;;;4945349;28;19914;-71
2021/08/13 02:05:21;;;;;;;;;;;;;;;;;;4953123;28;19914;-71
2021/08/13 02:07:46;;;;;;;;;;;;;;;;;;4949947;28;19925;-71
2021/08/13 02:10:11;;;;;;;;;;;;;;;;;;4972257;28;20008;-70
2021/08/13 02:12:37;;;;;;;;;;;;;;;;;;4950537;28;20297;-71
2021/08/13 02:15:02;;;;;;;;;;;;;;;;;;4951320;28;20127;-71
2021/08/13 02:17:29;;;;;;;;;;;;;;;;;;4953035;28;20109;-71
2021/08/13 02:19:54;;;;;;;;;;;;;;;;;;4949407;28;20529;-71
2021/08/13 02:22:20;;;;;;;;;;;;;;;;;;4972252;28;19968;-71
2021/08/13 02:24:48;;;;;;;;;;;;;;;;;;4947701;28;20330;-71
2021/08/13 02:27:14;;;;;;;;;;;;;;;;;;4947451;28;19914;-71
2021/08/13 02:29:40;;;;;;;;;;;;;;;;;;4952123;28;19918;-70
2021/08/13 02:32:08;;;;;;;;;;;;;;;;;;4946817;28;20009;-71
2021/08/13 02:34:36;;;;;;;;;;;;;;;;;;4955974;28;20053;-71
2021/08/13 02:37:01;;;;;;;;;;;;;;;;;;4935384;28;19952;-72
2021/08/13 02:39:26;;;;;;;;;;;;;;;;;;4946227;28;19918;-70
2021/08/13 02:41:52;;;;;;;;;;;;;;;;;;4954345;28;19921;-71
2021/08/13 02:44:17;;;;;;;;;;;;;;;;;;4949569;28;19920;-71
2021/08/13 02:46:42;;;;;;;;;;;;;;;;;;4951721;28;20342;-71
2021/08/13 02:49:09;;;;;;;;;;;;;;;;;;4945984;28;19917;-72
2021/08/13 02:51:34;;;;;;;;;;;;;;;;;;4947461;28;19925;-71
2021/08/13 02:53:59;;;;;;;;;;;;;;;;;;4955739;28;19913;-71
2021/08/13 02:56:26;;;;;;;;;;;;;;;;;;4930203;28;19973;-71
2021/08/13 02:58:51;;;;;;;;;;;;;;;;;;4954809;28;19961;-71
2021/08/13 03:01:17;;;;;;;;;;;;;;;;;;4947044;28;20258;-71
2021/08/13 03:03:42;;;;;;;;;;;;;;;;;;4947118;28;20006;-71
2021/08/13 03:06:07;;;;;;;;;;;;;;;;;;4950585;28;19941;-71
2021/08/13 03:08:33;;;;;;;;;;;;;;;;;;4963890;28;20314;-71
2021/08/13 03:10:58;;;;;;;;;;;;;;;;;;4948906;28;19926;-71
2021/08/13 03:13:25;;;;;;;;;;;;;;;;;;4945610;28;19914;-71
2021/08/13 03:15:50;;;;;;;;;;;;;;;;;;4948328;28;19913;-72
2021/08/13 03:18:18;;;;;;;;;;;;;;;;;;4955541;28;20003;-71
2021/08/13 03:20:48;;;;;;;;;;;;;;;;;;4947708;28;19922;-71
2021/08/13 03:23:13;;;;;;;;;;;;;;;;;;4968180;28;19960;-71
2021/08/13 03:25:38;;;;;;;;;;;;;;;;;;4950788;28;20322;-71
2021/08/13 03:28:09;;;;;;;;;;;;;;;;;;4946852;28;19920;-71
2021/08/13 03:30:34;;;;;;;;;;;;;;;;;;4951269;28;19939;-71
2021/08/13 03:32:59;;;;;;;;;;;;;;;;;;4930165;28;19914;-71
2021/08/13 03:35:25;;;;;;;;;;;;;;;;;;4952267;28;19914;-71
2021/08/13 03:37:50;;;;;;;;;;;;;;;;;;4948444;28;20024;-71
2021/08/13 03:40:15;;;;;;;;;;;;;;;;;;4945493;28;19914;-71
2021/08/13 03:42:46;;;;;;;;;;;;;;;;;;4952018;28;19921;-71
2021/08/13 03:45:11;;;;;;;;;;;;;;;;;;4963084;28;20000;-71
2021/08/13 03:47:37;;;;;;;;;;;;;;;;;;4947339;28;20009;-71
2021/08/13 03:50:02;;;;;;;;;;;;;;;;;;4950919;28;19918;-72
2021/08/13 03:52:27;;;;;;;;;;;;;;;;;;4947497;28;19925;-72
2021/08/13 03:54:53;;;;;;;;;;;;;;;;;;4950512;28;19914;-71
2021/08/13 03:57:22;;;;;;;;;;;;;;;;;;4951337;28;19918;-71
2021/08/13 03:59:48;;;;;;;;;;;;;;;;;;4947659;28;19921;-71
2021/08/13 04:02:13;;;;;;;;;;;;;;;;;;4954492;28;19922;-71
2021/08/13 04:04:38;;;;;;;;;;;;;;;;;;4947480;28;19921;-71
2021/08/13 04:07:06;;;;;;;;;;;;;;;;;;4970541;28;19921;-71
2021/08/13 04:09:31;;;;;;;;;;;;;;;;;;4948264;28;20166;-71
2021/08/13 04:11:56;;;;;;;;;;;;;;;;;;4947470;28;20040;-71
2021/08/13 04:14:24;;;;;;;;;;;;;;;;;;4939147;28;19918;-72
2021/08/13 04:16:52;;;;;;;;;;;;;;;;;;4944841;28;19941;-71
2021/08/13 04:19:17;;;;;;;;;;;;;;;;;;4941740;28;20004;-71
2021/08/13 04:21:42;;;;;;;;;;;;;;;;;;4964185;28;20001;-72
2021/08/13 04:24:08;;;;;;;;;;;;;;;;;;4949133;28;20005;-72
2021/08/13 04:26:34;;;;;;;;;;;;;;;;;;4969633;28;19921;-72
2021/08/13 04:28:59;;;;;;;;;;;;;;;;;;4943390;28;19914;-71
2021/08/13 04:31:24;;;;;;;;;;;;;;;;;;4952303;28;20052;-71
2021/08/13 04:33:50;;;;;;;;;;;;;;;;;;4947153;28;20490;-72
2021/08/13 04:36:19;;;;;;;;;;;;;;;;;;4948642;28;20381;-72
2021/08/13 04:38:44;;;;;;;;;;;;;;;;;;4953472;28;19957;-71
2021/08/13 04:41:10;;;;;;;;;;;;;;;;;;4947861;28;19921;-72
2021/08/13 04:43:37;;;;;;;;;;;;;;;;;;4949687;28;19914;-72
2021/08/13 04:46:03;;;;;;;;;;;;;;;;;;4931910;28;19920;-71
2021/08/13 04:48:28;;;;;;;;;;;;;;;;;;4946834;28;19914;-73
2021/08/13 04:50:54;;;;;;;;;;;;;;;;;;4950681;28;19918;-71
2021/08/13 04:53:19;;;;;;;;;;;;;;;;;;4949842;28;19972;-72
2021/08/13 04:55:45;;;;;;;;;;;;;;;;;;4951284;28;19914;-71
2021/08/13 04:58:12;;;;;;;;;;;;;;;;;;4945474;28;19938;-71
2021/08/13 05:00:37;;;;;;;;;;;;;;;;;;4930861;28;19918;-71
2021/08/13 05:03:07;;;;;;;;;;;;;;;;;;4942619;28;19914;-71
2021/08/13 05:05:36;;;;;;;;;;;;;;;;;;4940707;28;19914;-71
2021/08/13 05:08:04;;;;;;;;;;;;;;;;;;4949130;28;20248;-71
2021/08/13 05:10:29;;;;;;;;;;;;;;;;;;4962113;28;20363;-71
2021/08/13 05:12:55;;;;;;;;;;;;;;;;;;4943062;28;19914;-71
2021/08/13 05:15:21;;;;;;;;;;;;;;;;;;4953665;28;19922;-72
2021/08/13 05:17:47;;;;;;;;;;;;;;;;;;4945269;28;20441;-71
2021/08/13 05:20:13;;;;;;;;;;;;;;;;;;4949887;28;19918;-71
2021/08/13 05:22:41;;;;;;;;;;;;;;;;;;4944436;28;19930;-72
2021/08/13 05:25:07;;;;;;;;;;;;;;;;;;4947860;28;20406;-72
2021/08/13 05:27:33;;;;;;;;;;;;;;;;;;4947304;28;19914;-72
2021/08/13 05:29:58;;;;;;;;;;;;;;;;;;4932193;28;19918;-71
2021/08/13 05:32:26;;;;;;;;;;;;;;;;;;4950480;28;19913;-72
2021/08/13 05:34:52;;;;;;;;;;;;;;;;;;4954068;28;20264;-72
2021/08/13 05:37:17;;;;;;;;;;;;;;;;;;4970481;28;20401;-72
2021/08/13 05:39:43;;;;;;;;;;;;;;;;;;4951644;28;19918;-71
2021/08/13 05:42:08;;;;;;;;;;;;;;;;;;4937192;28;19929;-71
2021/08/13 05:44:34;;;;;;;;;;;;;;;;;;4950836;28;19913;-73
2021/08/13 05:46:59;;;;;;;;;;;;;;;;;;4951572;28;19921;-73
2021/08/13 05:49:24;;;;;;;;;;;;;;;;;;4956173;28;19913;-73
2021/08/13 05:51:49;;;;;;;;;;;;;;;;;;4970954;28;20425;-73
2021/08/13 05:54:15;;;;;;;;;;;;;;;;;;4956856;28;19913;-72
2021/08/13 05:56:43;;;;;;;;;;;;;;;;;;4956245;28;19949;-72
2021/08/13 05:59:08;;;;;;;;;;;;;;;;;;4957509;28;19950;-73
2021/08/13 06:01:34;;;;;;;;;;;;;;;;;;4935799;28;20841;-74
2021/08/13 06:04:01;;;;;;;;;;;;;;;;;;4943975;28;20338;-72
2021/08/13 06:06:27;;;;;;;;;;;;;;;;;;4956744;28;19921;-73
2021/08/13 06:08:52;;;;;;;;;;;;;;;;;;4955593;28;19918;-73
2021/08/13 06:11:18;;;;;;;;;;;;;;;;;;4956216;28;19914;-73
2021/08/13 06:13:43;;;;;;;;;;;;;;;;;;4949677;28;20468;-73
2021/08/13 06:16:09;;;;;;;;;;;;;;;;;;4953333;28;19945;-73
2021/08/13 06:18:34;;;;;;;;;;;;;;;;;;4969358;28;19961;-73
2021/08/13 06:20:59;;;;;;;;;;;;;;;;;;4953941;28;20019;-72
2021/08/13 06:23:27;;;;;;;;;;;;;;;;;;4954027;28;19921;-73
2021/08/13 06:25:52;;;;;;;;;;;;;;;;;;4955640;28;19918;-72
2021/08/13 06:28:19;;;;;;;;;;;;;;;;;;4940999;28;19914;-72
2021/08/13 06:30:45;;;;;;;;;;;;;;;;;;4951573;28;19953;-74
2021/08/13 06:33:11;;;;;;;;;;;;;;;;;;4972033;28;19965;-74
2021/08/13 06:35:37;;;;;;;;;;;;;;;;;;4972657;28;20265;-74
2021/08/13 06:38:03;;;;;;;;;;;;;;;;;;4953042;28;19918;-73
2021/08/13 06:40:28;;;;;;;;;;;;;;;;;;4952324;28;20310;-74
2021/08/13 06:42:53;;;;;;;;;;;;;;;;;;4951843;28;19914;-74
2021/08/13 06:45:23;;;;;;;;;;;;;;;;;;4953842;28;19914;-74
2021/08/13 06:47:48;;;;;;;;;;;;;;;;;;4969114;28;19913;-74
2021/08/13 06:50:13;;;;;;;;;;;;;;;;;;4951383;28;20221;-73
2021/08/13 06:52:44;;;;;;;;;;;;;;;;;;4935555;28;19921;-74
2021/08/13 06:55:09;;;;;;;;;;;;;;;;;;4949571;28;20423;-73
2021/08/13 06:57:35;;;;;;;;;;;;;;;;;;4948335;28;20008;-74
2021/08/13 07:00:00;;;;;;;;;;;;;;;;;;4939169;28;20351;-72
2021/08/13 07:02:25;;;;;;;;;;;;;;;;;;4945962;28;19950;-73
2021/08/13 07:04:50;;;;;;;;;;;;;;;;;;4950287;28;20207;-73
2021/08/13 07:07:16;;;;;;;;;;;;;;;;;;4935954;28;20355;-73
2021/08/13 07:09:46;;;;;;;;;;;;;;;;;;4930921;28;20618;-73
2021/08/13 07:12:11;;;;;;;;;;;;;;;;;;4940410;28;19914;-73
2021/08/13 07:14:37;;;;;;;;;;;;;;;;;;4951978;28;19916;-74
2021/08/13 07:17:02;;;;;;;;;;;;;;;;;;4951550;28;20000;-74
2021/08/13 07:19:27;;;;;;;;;;;;;;;;;;4948634;28;19917;-71
2021/08/13 07:21:57;;;;;;;;;;;;;;;;;;4946452;28;20288;-69
2021/08/13 07:24:23;;;;;;;;;;;;;;;;;;4937951;28;20385;-69
2021/08/13 07:26:48;;;;;;;;;;;;;;;;;;4951221;28;19948;-70
2021/08/13 07:29:14;;;;;;;;;;;;;;;;;;4947389;28;19914;-69
2021/08/13 07:31:39;;;;;;;;;;;;;;;;;;4950691;28;19920;-69
2021/08/13 07:34:05;;;;;;;;;;;;;;;;;;4945636;28;19988;-69
2021/08/13 07:36:30;;;;;;;;;;;;;;;;;;4953230;28;20460;-69
2021/08/13 07:38:55;;;;;;;;;;;;;;;;;;4948274;28;19921;-68
2021/08/13 07:41:22;;;;;;;;;;;;;;;;;;4951502;28;19980;-68
2021/08/13 07:43:47;;;;;;;;;;;;;;;;;;4949362;28;20363;-68
2021/08/13 07:46:13;;;;;;;;;;;;;;;;;;4965086;28;20017;-69
2021/08/13 07:48:38;;;;;;;;;;;;;;;;;;4949555;28;20480;-69
2021/08/13 07:51:03;;;;;;;;;;;;;;;;;;4965262;28;20378;-70
2021/08/13 07:53:28;;;;;;;;;;;;;;;;;;4963967;28;20236;-69
2021/08/13 07:55:53;;;;;;;;;;;;;;;;;;4948205;28;19993;-68
2021/08/13 07:58:19;;;;;;;;;;;;;;;;;;4948946;28;20061;-68
2021/08/13 08:00:44;;;;;;;;;;;;;;;;;;4947804;28;19921;-67
2021/08/13 08:03:09;;;;;;;;;;;;;;;;;;4968231;28;19914;-68
2021/08/13 08:05:34;;;;;;;;;;;;;;;;;;4964975;28;20403;-69
2021/08/13 08:08:00;;;;;;;;;;;;;;;;;;4968807;28;19936;-68
2021/08/13 08:10:25;;;;;;;;;;;;;;;;;;4962810;28;19918;-69
2021/08/13 08:12:50;;;;;;;;;;;;;;;;;;4963363;28;19913;-69
2021/08/13 08:15:18;;;;;;;;;;;;;;;;;;4952359;28;20247;-69
2021/08/13 08:17:43;;;;;;;;;;;;;;;;;;4956997;28;19918;-69
2021/08/13 08:20:08;;;;;;;;;;;;;;;;;;4967087;28;19925;-71
2021/08/13 08:22:33;;;;;;;;;;;;;;;;;;4962637;28;20359;-70
2021/08/13 08:24:59;;;;;;;;;;;;;;;;;;4961315;28;19910;-71
2021/08/13 08:27:24;;;;;;;;;;;;;;;;;;4963171;28;19957;-69
2021/08/13 08:29:49;;;;;;;;;;;;;;;;;;4963852;28;19952;-68
2021/08/13 08:32:14;;;;;;;;;;;;;;;;;;4965641;28;20390;-69
2021/08/13 08:34:39;;;;;;;;;;;;;;;;;;4966083;28;20025;-69
2021/08/13 08:37:09;;;;;;;;;;;;;;;;;;4970404;28;20159;-69
2021/08/13 08:39:34;;;;;;;;;;;;;;;;;;4969098;28;20327;-69
2021/08/13 08:41:59;;;;;;;;;;;;;;;;;;4969118;28;20372;-70
2021/08/13 08:44:25;;;;;;;;;;;;;;;;;;4967898;28;19935;-70
2021/08/13 08:46:50;;;;;;;;;;;;;;;;;;4947689;28;19965;-70
2021/08/13 08:49:15;;;;;;;;;;;;;;;;;;4964398;28;19921;-70
2021/08/13 08:51:40;;;;;;;;;;;;;;;;;;4963534;28;19914;-70
2021/08/13 08:54:05;;;;;;;;;;;;;;;;;;4952118;28;19960;-70
2021/08/13 08:56:32;;;;;;;;;;;;;;;;;;4960665;28;19946;-68
2021/08/13 08:58:57;;;;;;;;;;;;;;;;;;4967126;28;19914;-72
2021/08/13 09:01:25;;;;;;;;;;;;;;;;;;4972317;28;19926;-71
2021/08/13 09:03:50;;;;;;;;;;;;;;;;;;4973251;28;19914;-71
2021/08/13 09:06:15;;;;;;;;;;;;;;;;;;4971808;28;20237;-71
2021/08/13 09:08:40;;;;;;;;;;;;;;;;;;4970270;28;19913;-71
2021/08/13 09:11:06;;;;;;;;;;;;;;;;;;4966468;28;20343;-71
2021/08/13 09:13:34;;;;;;;;;;;;;;;;;;4972365;28;20231;-70
2021/08/13 09:15:59;;;;;;;;;;;;;;;;;;4955701;28;20005;-71
2021/08/13 09:18:24;;;;;;;;;;;;;;;;;;4954216;28;20303;-70
2021/08/13 09:20:49;;;;;;;;;;;;;;;;;;4972369;28;20005;-71
2021/08/13 09:23:14;;;;;;;;;;;;;;;;;;4972347;28;19920;-71
2021/08/13 09:25:39;;;;;;;;;;;;;;;;;;4954991;28;20032;-71
2021/08/13 09:28:23;;;;;;;;;;;;;;;;;;4974332;28;19964;-71
2021/08/13 09:30:55;;;;;;;;;;;;;;;;;;4950638;28;19913;-69
2021/08/13 09:33:21;;;;;;;;;;;;;;;;;;4950269;28;19918;-70
2021/08/13 09:35:46;;;;;;;;;;;;;;;;;;4952677;28;20139;-70
2021/08/13 09:38:11;;;;;;;;;;;;;;;;;;4967946;28;19973;-70
2021/08/13 09:40:37;;;;;;;;;;;;;;;;;;4968511;28;19918;-70
2021/08/13 09:43:02;;;;;;;;;;;;;;;;;;4970058;28;20053;-69
2021/08/13 09:45:29;;;;;;;;;;;;;;;;;;4952457;28;19933;-71
2021/08/13 09:47:54;;;;;;;;;;;;;;;;;;4952872;28;19914;-70
2021/08/13 09:50:21;;;;;;;;;;;;;;;;;;4955015;28;19909;-70
2021/08/13 09:52:46;;;;;;;;;;;;;;;;;;4956727;28;19913;-70
2021/08/13 09:55:11;;;;;;;;;;;;;;;;;;4955245;28;19960;-70
2021/08/13 09:57:36;;;;;;;;;;;;;;;;;;4969220;28;19929;-70
2021/08/13 10:00:02;;;;;;;;;;;;;;;;;;4950843;28;19918;-70
2021/08/13 10:02:38;;;;;;;;;;;;;;;;;;4965688;28;19924;-70
2021/08/13 10:05:03;;;;;;;;;;;;;;;;;;4939711;28;20013;-70
2021/08/13 10:07:29;;;;;;;;;;;;;;;;;;4951378;28;19910;-70
2021/08/13 10:09:54;;;;;;;;;;;;;;;;;;4947698;28;19918;-70
2021/08/13 10:12:19;;;;;;;;;;;;;;;;;;4948469;28;20267;-70
2021/08/13 10:14:44;;;;;;;;;;;;;;;;;;4949704;28;20343;-70
2021/08/13 10:17:15;;;;;;;;;;;;;;;;;;4946147;28;19920;-70
2021/08/13 10:19:45;;;;;;;;;;;;;;;;;;4947156;28;20376;-69
2021/08/13 10:22:11;;;;;;;;;;;;;;;;;;4947520;28;19972;-70
2021/08/13 10:24:36;;;;;;;;;;;;;;;;;;4963906;28;20013;-70
2021/08/13 10:27:01;;;;;;;;;;;;;;;;;;4948288;28;20271;-70
2021/08/13 10:29:27;;;;;;;;;;;;;;;;;;4954614;28;19914;-70
2021/08/13 10:31:52;;;;;;;;;;;;;;;;;;4954214;28;19914;-70
2021/08/13 10:34:17;;;;;;;;;;;;;;;;;;4936452;28;20182;-70
2021/08/13 10:36:42;;;;;;;;;;;;;;;;;;4969472;28;19918;-70
2021/08/13 10:39:10;;;;;;;;;;;;;;;;;;4950538;28;19992;-70
2021/08/13 10:41:38;;;;;;;;;;;;;;;;;;4951878;28;20013;-70
2021/08/13 10:44:03;;;;;;;;;;;;;;;;;;4948262;28;19914;-70
2021/08/13 10:46:30;;;;;;;;;;;;;;;;;;4955685;28;19914;-70
2021/08/13 10:48:55;;;;;;;;;;;;;;;;;;4953610;28;19914;-70
2021/08/13 10:51:20;;;;;;;;;;;;;;;;;;4948249;28;19945;-69
2021/08/13 10:53:46;;;;;;;;;;;;;;;;;;4953087;28;20017;-69
2021/08/13 10:56:18;;;;;;;;;;;;;;;;;;4954081;28;19953;-70
2021/08/13 10:58:44;;;;;;;;;;;;;;;;;;4974091;28;20481;-70
2021/08/13 11:01:16;;;;;;;;;;;;;;;;;;4954271;28;19921;-70
2021/08/13 11:03:47;;;;;;;;;;;;;;;;;;4940706;28;20330;-70
2021/08/13 11:06:12;;;;;;;;;;;;;;;;;;4946179;28;19997;-70
2021/08/13 11:08:37;;;;;;;;;;;;;;;;;;4949264;28;20387;-70
2021/08/13 11:11:02;;;;;;;;;;;;;;;;;;4950084;28;20344;-70
2021/08/13 11:13:30;;;;;;;;;;;;;;;;;;4945637;28;19914;-70
2021/08/13 11:15:59;;;;;;;;;;;;;;;;;;4948468;28;20175;-70
2021/08/13 11:18:25;;;;;;;;;;;;;;;;;;4950190;28;20470;-70
2021/08/13 11:20:50;;;;;;;;;;;;;;;;;;4951451;28;19933;-70
2021/08/13 11:23:15;;;;;;;;;;;;;;;;;;4949766;28;19992;-70
2021/08/13 11:25:40;;;;;;;;;;;;;;;;;;4935154;28;19914;-70
2021/08/13 11:28:06;;;;;;;;;;;;;;;;;;4946087;28;19937;-70
2021/08/13 11:30:31;;;;;;;;;;;;;;;;;;4936510;28;19921;-70
2021/08/13 11:32:56;;;;;;;;;;;;;;;;;;4947641;28;19964;-70
2021/08/13 11:35:21;;;;;;;;;;;;;;;;;;4950824;28;19968;-70
2021/08/13 11:37:54;;;;;;;;;;;;;;;;;;4953503;28;19933;-69
2021/08/13 11:40:23;;;;;;;;;;;;;;;;;;4939923;28;19942;-69
2021/08/13 11:42:49;;;;;;;;;;;;;;;;;;4955150;28;20323;-69
2021/08/13 11:45:15;;;;;;;;;;;;;;;;;;4943372;28;19918;-69
2021/08/13 11:47:41;;;;;;;;;;;;;;;;;;4943780;28;19925;-69
2021/08/13 11:50:06;;;;;;;;;;;;;;;;;;4946309;28;19922;-69
2021/08/13 11:52:32;;;;;;;;;;;;;;;;;;4947713;28;19969;-69
2021/08/13 11:54:58;;;;;;;;;;;;;;;;;;4949547;28;19941;-69
2021/08/13 11:57:23;;;;;;;;;;;;;;;;;;4968279;28;19922;-69
2021/08/13 11:59:52;;;;;;;;;;;;;;;;;;4963856;28;19920;-69
2021/08/13 12:02:20;;;;;;;;;;;;;;;;;;4952767;28;20292;-69
2021/08/13 12:04:45;;;;;;;;;;;;;;;;;;4950440;28;20367;-69
2021/08/13 12:07:13;;;;;;;;;;;;;;;;;;4952124;28;19949;-69
2021/08/13 12:09:50;;;;;;;;;;;;;;;;;;4950132;28;20000;-68
2021/08/13 12:12:17;;;;;;;;;;;;;;;;;;4945188;28;19914;-69
2021/08/13 12:14:46;;;;;;;;;;;;;;;;;;4951126;28;20020;-69
2021/08/13 12:17:11;;;;;;;;;;;;;;;;;;4950632;28;20064;-69
2021/08/13 12:19:37;;;;;;;;;;;;;;;;;;4947345;28;19922;-69
2021/08/13 12:22:02;;;;;;;;;;;;;;;;;;4946755;28;20402;-70
2021/08/13 12:24:27;;;;;;;;;;;;;;;;;;4950070;28;19913;-69
2021/08/13 12:26:53;;;;;;;;;;;;;;;;;;4950376;28;20442;-69
2021/08/13 12:29:18;;;;;;;;;;;;;;;;;;4948431;28;19918;-69
2021/08/13 12:31:43;;;;;;;;;;;;;;;;;;4964485;28;19924;-69
2021/08/13 12:34:08;;;;;;;;;;;;;;;;;;4946711;28;20275;-69
2021/08/13 12:36:34;;;;;;;;;;;;;;;;;;4953940;28;19928;-69
2021/08/13 12:38:59;;;;;;;;;;;;;;;;;;4956653;28;19969;-69
2021/08/13 12:41:27;;;;;;;;;;;;;;;;;;4954537;28;19921;-69
2021/08/13 12:43:52;;;;;;;;;;;;;;;;;;4943781;28;19914;-69
2021/08/13 12:46:18;;;;;;;;;;;;;;;;;;4937117;28;19914;-69
2021/08/13 12:48:43;;;;;;;;;;;;;;;;;;4951266;28;20412;-71
2021/08/13 12:51:08;;;;;;;;;;;;;;;;;;4956648;28;19979;-71
2021/08/13 12:53:34;;;;;;;;;;;;;;;;;;4955302;28;19922;-70
2021/08/13 12:55:59;;;;;;;;;;;;;;;;;;4957025;28;19909;-71
2021/08/13 12:58:24;;;;;;;;;;;;;;;;;;4972078;28;19914;-71
2021/08/13 13:00:49;;;;;;;;;;;;;;;;;;4957065;28;19964;-71
2021/08/13 13:03:15;;;;;;;;;;;;;;;;;;4972513;28;20263;-70
2021/08/13 13:05:41;;;;;;;;;;;;;;;;;;4959853;28;19945;-70
2021/08/13 13:08:06;;;;;;;;;;;;;;;;;;4970880;28;19990;-71
2021/08/13 13:10:31;;;;;;;;;;;;;;;;;;4952516;28;19918;-71
2021/08/13 13:12:57;;;;;;;;;;;;;;;;;;4942693;28;19948;-71
2021/08/13 13:15:22;;;;;;;;;;;;;;;;;;4938892;28;19914;-71
2021/08/13 13:17:47;;;;;;;;;;;;;;;;;;4955790;28;19957;-71
2021/08/13 13:20:13;;;;;;;;;;;;;;;;;;4953278;28;19965;-71
2021/08/13 13:22:41;;;;;;;;;;;;;;;;;;4956330;28;19918;-71
2021/08/13 13:25:06;;;;;;;;;;;;;;;;;;4960319;28;19913;-71
2021/08/13 13:27:50;;;;;;;;;;;;;;;;;;4973154;28;19910;-71
2021/08/13 13:30:37;;;;;;;;;;;;;;;;;;4968212;28;19914;-71
2021/08/13 13:33:02;;;;;;;;;;;;;;;;;;4958675;28;19921;-71
2021/08/13 13:35:50;;;;;;;;;;;;;;;;;;4968735;28;19918;-71
2021/08/13 13:38:27;;;;;;;;;;;;;;;;;;4944111;28;19914;-71
2021/08/13 13:40:52;;;;;;;;;;;;;;;;;;4953992;28;19921;-72
2021/08/13 13:43:18;;;;;;;;;;;;;;;;;;4955090;28;19949;-71
2021/08/13 13:45:43;;;;;;;;;;;;;;;;;;4954904;28;19917;-71
2021/08/13 13:48:08;;;;;;;;;;;;;;;;;;4953346;28;20243;-71
2021/08/13 13:50:34;;;;;;;;;;;;;;;;;;4952371;28;19998;-72
2021/08/13 13:52:59;;;;;;;;;;;;;;;;;;4957314;28;19957;-72
2021/08/13 13:55:27;;;;;;;;;;;;;;;;;;4954712;28;19956;-72
2021/08/13 13:57:55;;;;;;;;;;;;;;;;;;4958093;28;20005;-72
2021/08/13 14:00:22;;;;;;;;;;;;;;;;;;4955462;28;19917;-72
2021/08/13 14:02:52;;;;;;;;;;;;;;;;;;4955034;28;19956;-72
2021/08/13 14:05:17;;;;;;;;;;;;;;;;;;4963400;28;19996;-72
2021/08/13 14:07:44;;;;;;;;;;;;;;;;;;4958350;28;19925;-72
2021/08/13 14:10:09;;;;;;;;;;;;;;;;;;4955222;28;19914;-72
2021/08/13 14:12:35;;;;;;;;;;;;;;;;;;4937974;28;19918;-72
2021/08/13 14:15:01;;;;;;;;;;;;;;;;;;4954680;28;19937;-72
2021/08/13 14:17:26;;;;;;;;;;;;;;;;;;4956188;28;19914;-72
2021/08/13 14:19:51;;;;;;;;;;;;;;;;;;4954664;28;19921;-72
2021/08/13 14:22:16;;;;;;;;;;;;;;;;;;4955637;28;19920;-72
2021/08/13 14:24:42;;;;;;;;;;;;;;;;;;4944128;28;19968;-72
2021/08/13 14:27:07;;;;;;;;;;;;;;;;;;4955899;28;19914;-72
2021/08/13 14:29:32;;;;;;;;;;;;;;;;;;4954552;28;19968;-72
2021/08/13 14:31:57;;;;;;;;;;;;;;;;;;4949972;28;20361;-72
2021/08/13 14:34:23;;;;;;;;;;;;;;;;;;4952104;28;19914;-72
2021/08/13 14:36:48;;;;;;;;;;;;;;;;;;4956423;28;19962;-72
2021/08/13 14:39:13;;;;;;;;;;;;;;;;;;4950625;28;20098;-72
2021/08/13 14:41:39;;;;;;;;;;;;;;;;;;4949222;28;19988;-72
2021/08/13 14:44:04;;;;;;;;;;;;;;;;;;4948313;28;19997;-72
2021/08/13 14:46:29;;;;;;;;;;;;;;;;;;4951877;28;20040;-72
2021/08/13 14:48:54;;;;;;;;;;;;;;;;;;4968350;28;21094;-72
2021/08/13 14:51:19;;;;;;;;;;;;;;;;;;4947795;28;19953;-72
2021/08/13 14:53:45;;;;;;;;;;;;;;;;;;4945275;28;20371;-72
2021/08/13 14:56:11;;;;;;;;;;;;;;;;;;4944856;28;19954;-72
2021/08/13 14:58:36;;;;;;;;;;;;;;;;;;4955138;28;20264;-72
2021/08/13 15:01:02;;;;;;;;;;;;;;;;;;4941976;28;20236;-72
2021/08/13 15:03:27;;;;;;;;;;;;;;;;;;4949585;28;20306;-73
2021/08/13 15:05:53;;;;;;;;;;;;;;;;;;4940511;28;19918;-73
2021/08/13 15:08:18;;;;;;;;;;;;;;;;;;4946445;28;19914;-73
2021/08/13 15:10:43;;;;;;;;;;;;;;;;;;4952670;28;20012;-72
2021/08/13 15:13:09;;;;;;;;;;;;;;;;;;4942354;28;19914;-71
2021/08/13 15:15:34;;;;;;;;;;;;;;;;;;4933503;28;20351;-70
2021/08/13 15:18:01;;;;;;;;;;;;;;;;;;4942265;28;19961;-69
2021/08/13 15:20:27;;;;;;;;;;;;;;;;;;4941876;28;20028;-68
2021/08/13 15:22:52;;;;;;;;;;;;;;;;;;4946635;28;19918;-70
2021/08/13 15:25:17;;;;;;;;;;;;;;;;;;4961397;28;19976;-69
2021/08/13 15:27:43;;;;;;;;;;;;;;;;;;4969487;28;20574;-69
2021/08/13 15:30:08;;;;;;;;;;;;;;;;;;4946801;28;19940;-69
2021/08/13 15:32:33;;;;;;;;;;;;;;;;;;4960459;28;19987;-69
2021/08/13 15:34:59;;;;;;;;;;;;;;;;;;4966993;28;19913;-69
2021/08/13 15:37:24;;;;;;;;;;;;;;;;;;4961632;28;19918;-68
2021/08/13 15:39:49;;;;;;;;;;;;;;;;;;4968920;28;19941;-69
2021/08/13 15:42:14;;;;;;;;;;;;;;;;;;4960437;28;19918;-69
2021/08/13 15:44:40;;;;;;;;;;;;;;;;;;4945780;28;19914;-69
2021/08/13 15:47:05;;;;;;;;;;;;;;;;;;4970935;28;20371;-69
2021/08/13 15:49:30;;;;;;;;;;;;;;;;;;4945129;28;19910;-69
2021/08/13 15:51:55;;;;;;;;;;;;;;;;;;4949878;28;19988;-69
2021/08/13 15:54:21;;;;;;;;;;;;;;;;;;4961628;28;20379;-70
2021/08/13 15:56:46;;;;;;;;;;;;;;;;;;4964336;28;19914;-69
2021/08/13 15:59:11;;;;;;;;;;;;;;;;;;4948806;28;20332;-69
2021/08/13 16:01:36;;;;;;;;;;;;;;;;;;4944765;28;20303;-69
2021/08/13 16:04:02;;;;;;;;;;;;;;;;;;4966575;28;20422;-72
2021/08/13 16:06:27;;;;;;;;;;;;;;;;;;4963319;28;19913;-73
2021/08/13 16:08:52;;;;;;;;;;;;;;;;;;4960751;28;19914;-73
2021/08/13 16:11:17;;;;;;;;;;;;;;;;;;4956129;28;19922;-73
2021/08/13 16:13:43;;;;;;;;;;;;;;;;;;4932481;28;19925;-73
2021/08/13 16:16:08;;;;;;;;;;;;;;;;;;4971621;28;19997;-71
2021/08/13 16:18:36;;;;;;;;;;;;;;;;;;4963131;28;19914;-72
2021/08/13 16:21:03;;;;;;;;;;;;;;;;;;4965552;28;19918;-72
2021/08/13 16:23:28;;;;;;;;;;;;;;;;;;4971633;28;20282;-71
2021/08/13 16:25:54;;;;;;;;;;;;;;;;;;4938749;28;20171;-71
2021/08/13 16:28:19;;;;;;;;;;;;;;;;;;4968469;28;20337;-71
2021/08/13 16:30:44;;;;;;;;;;;;;;;;;;4961452;28;19918;-72
2021/08/13 16:33:10;;;;;;;;;;;;;;;;;;4962753;28;19934;-72
2021/08/13 16:35:35;;;;;;;;;;;;;;;;;;4966995;28;19997;-74
2021/08/13 16:38:00;;;;;;;;;;;;;;;;;;4944227;28;19914;-71